createdAt,value
2017-05-30T00:00:46.526Z,0
2017-05-30T00:01:46.527Z,0
2017-05-30T00:02:46.532Z,0
2017-05-30T00:03:46.534Z,0
2017-05-30T00:04:46.523Z,0
2017-05-30T00:05:46.524Z,0
2017-05-30T00:06:46.522Z,0
2017-05-30T00:07:46.527Z,0
2017-05-30T00:08:46.520Z,0
2017-05-30T00:09:46.522Z,0
2017-05-30T00:10:46.518Z,0
2017-05-30T00:11:46.517Z,0
2017-05-30T00:12:46.521Z,0
2017-05-30T00:13:46.524Z,0
2017-05-30T00:14:46.520Z,0
2017-05-30T00:15:46.515Z,0
2017-05-30T00:16:46.518Z,0
2017-05-30T00:17:46.522Z,0
2017-05-30T00:18:46.523Z,0
2017-05-30T00:19:46.241Z,0
2017-05-30T00:20:46.517Z,0
2017-05-30T00:21:46.514Z,0
2017-05-30T00:22:46.510Z,0
2017-05-30T00:23:46.512Z,0
2017-05-30T00:24:46.515Z,0
2017-05-30T00:25:46.511Z,0
2017-05-30T00:26:46.506Z,0
2017-05-30T00:27:46.507Z,0
2017-05-30T00:28:46.511Z,0
2017-05-30T00:29:46.510Z,0
2017-05-30T00:30:46.506Z,0
2017-05-30T00:31:46.503Z,0
2017-05-30T00:32:46.203Z,0
2017-05-30T00:33:46.509Z,0
2017-05-30T00:34:46.507Z,0
2017-05-30T00:35:46.507Z,0
2017-05-30T00:36:46.198Z,0
2017-05-30T00:37:46.503Z,0
2017-05-30T00:38:46.195Z,0
2017-05-30T00:39:46.194Z,0
2017-05-30T00:40:46.502Z,0
2017-05-30T00:41:46.496Z,0
2017-05-30T00:42:46.504Z,0
2017-05-30T00:43:46.256Z,0
2017-05-30T00:44:46.499Z,0
2017-05-30T00:45:46.497Z,0
2017-05-30T00:46:46.497Z,0
2017-05-30T00:47:46.192Z,0
2017-05-30T00:48:46.184Z,0
2017-05-30T00:49:45.882Z,0
2017-05-30T00:50:46.487Z,0
2017-05-30T00:51:46.487Z,0
2017-05-30T00:52:46.490Z,0
2017-05-30T00:53:46.486Z,0
2017-05-30T00:54:46.488Z,0
2017-05-30T00:55:46.484Z,0
2017-05-30T00:56:46.483Z,0
2017-05-30T00:57:46.482Z,0
2017-05-30T00:58:46.481Z,0
2017-05-30T00:59:46.487Z,0
2017-05-30T01:00:46.180Z,0
2017-05-30T01:01:46.483Z,0
2017-05-30T01:02:46.480Z,0
2017-05-30T01:03:46.479Z,0
2017-05-30T01:04:46.474Z,0
2017-05-30T01:05:46.476Z,0
2017-05-30T01:06:46.473Z,0
2017-05-30T01:07:46.475Z,0
2017-05-30T01:08:46.476Z,0
2017-05-30T01:09:46.471Z,0
2017-05-30T01:10:46.476Z,0
2017-05-30T01:11:46.474Z,0
2017-05-30T01:12:46.475Z,0
2017-05-30T01:13:46.475Z,0
2017-05-30T01:14:46.467Z,0
2017-05-30T01:15:46.520Z,0
2017-05-30T01:16:46.464Z,0
2017-05-30T01:17:46.161Z,0
2017-05-30T01:18:46.159Z,0
2017-05-30T01:19:46.462Z,0
2017-05-30T01:20:46.153Z,0
2017-05-30T01:21:46.456Z,0
2017-05-30T01:22:46.452Z,0
2017-05-30T01:23:46.154Z,0
2017-05-30T01:24:46.457Z,0
2017-05-30T01:25:46.451Z,0
2017-05-30T01:26:46.448Z,0
2017-05-30T01:27:46.462Z,0
2017-05-30T01:28:46.454Z,0
2017-05-30T01:29:46.142Z,0
2017-05-30T01:30:46.445Z,0
2017-05-30T01:31:46.440Z,0
2017-05-30T01:32:46.448Z,0
2017-05-30T01:33:46.445Z,0
2017-05-30T01:34:46.438Z,0
2017-05-30T01:35:46.686Z,0
2017-05-30T01:36:46.439Z,0
2017-05-30T01:37:46.437Z,0
2017-05-30T01:38:46.437Z,0
2017-05-30T01:39:46.131Z,0
2017-05-30T01:40:46.127Z,0
2017-05-30T01:41:46.430Z,0
2017-05-30T01:42:46.427Z,0
2017-05-30T01:43:46.429Z,0
2017-05-30T01:44:46.120Z,0
2017-05-30T01:45:46.421Z,0
2017-05-30T01:46:46.417Z,0
2017-05-30T01:47:46.419Z,0
2017-05-30T01:48:46.419Z,0
2017-05-30T01:49:46.415Z,0
2017-05-30T01:50:46.417Z,0
2017-05-30T01:51:46.415Z,0
2017-05-30T01:52:46.412Z,0
2017-05-30T01:53:46.126Z,0
2017-05-30T01:54:46.108Z,0
2017-05-30T01:55:46.409Z,0
2017-05-30T01:56:46.407Z,0
2017-05-30T01:57:46.408Z,0
2017-05-30T01:58:46.421Z,0
2017-05-30T01:59:46.402Z,0
2017-05-30T02:00:46.401Z,0
2017-05-30T02:01:46.399Z,0
2017-05-30T02:02:46.392Z,0
2017-05-30T02:03:46.397Z,0
2017-05-30T02:04:46.392Z,4
2017-05-30T02:05:46.392Z,4
2017-05-30T02:06:46.387Z,4
2017-05-30T02:07:46.386Z,0
2017-05-30T02:08:46.386Z,4
2017-05-30T02:09:46.384Z,4
2017-05-30T02:10:46.381Z,4
2017-05-30T02:11:46.380Z,4
2017-05-30T02:12:46.379Z,4
2017-05-30T02:13:46.381Z,8
2017-05-30T02:14:46.073Z,4
2017-05-30T02:15:46.372Z,8
2017-05-30T02:16:46.369Z,8
2017-05-30T02:17:46.375Z,8
2017-05-30T02:18:46.371Z,12
2017-05-30T02:19:46.365Z,12
2017-05-30T02:20:46.363Z,12
2017-05-30T02:21:46.358Z,12
2017-05-30T02:22:46.356Z,16
2017-05-30T02:23:46.356Z,16
2017-05-30T02:24:46.360Z,20
2017-05-30T02:25:46.354Z,20
2017-05-30T02:26:46.353Z,24
2017-05-30T02:27:46.381Z,28
2017-05-30T02:28:46.359Z,32
2017-05-30T02:29:46.348Z,36
2017-05-30T02:30:46.344Z,40
2017-05-30T02:31:46.343Z,48
2017-05-30T02:32:46.340Z,48
2017-05-30T02:33:46.337Z,52
2017-05-30T02:34:46.335Z,60
2017-05-30T02:35:46.033Z,68
2017-05-30T02:36:46.331Z,76
2017-05-30T02:37:46.335Z,84
2017-05-30T02:38:46.326Z,92
2017-05-30T02:39:46.326Z,100
2017-05-30T02:40:46.336Z,112
2017-05-30T02:41:46.323Z,124
2017-05-30T02:42:46.325Z,136
2017-05-30T02:43:46.320Z,152
2017-05-30T02:44:46.017Z,168
2017-05-30T02:45:47.729Z,180
2017-05-30T02:46:46.375Z,196
2017-05-30T02:47:46.315Z,212
2017-05-30T02:48:46.311Z,228
2017-05-30T02:49:46.312Z,248
2017-05-30T02:50:46.307Z,260
2017-05-30T02:51:46.303Z,280
2017-05-30T02:52:46.303Z,304
2017-05-30T02:53:46.299Z,324
2017-05-30T02:54:46.294Z,344
2017-05-30T02:55:46.293Z,364
2017-05-30T02:56:46.291Z,388
2017-05-30T02:57:46.295Z,412
2017-05-30T02:58:46.295Z,432
2017-05-30T02:59:46.288Z,456
2017-05-30T03:00:45.980Z,484
2017-05-30T03:01:46.282Z,508
2017-05-30T03:02:46.284Z,532
2017-05-30T03:03:46.280Z,564
2017-05-30T03:04:46.282Z,592
2017-05-30T03:05:46.272Z,624
2017-05-30T03:06:46.270Z,656
2017-05-30T03:07:46.270Z,688
2017-05-30T03:08:45.967Z,720
2017-05-30T03:09:45.963Z,756
2017-05-30T03:10:45.960Z,792
2017-05-30T03:11:46.261Z,828
2017-05-30T03:12:45.960Z,868
2017-05-30T03:13:46.261Z,908
2017-05-30T03:14:46.255Z,952
2017-05-30T03:15:46.255Z,996
2017-05-30T03:16:45.946Z,1048
2017-05-30T03:17:46.253Z,1112
2017-05-30T03:18:46.250Z,1188
2017-05-30T03:19:45.941Z,1276
2017-05-30T03:20:46.243Z,1376
2017-05-30T03:21:46.238Z,1476
2017-05-30T03:22:46.238Z,1576
2017-05-30T03:23:46.242Z,1664
2017-05-30T03:24:46.249Z,1748
2017-05-30T03:25:46.243Z,1828
2017-05-30T03:26:45.930Z,1904
2017-05-30T03:27:46.233Z,2004
2017-05-30T03:28:46.233Z,2132
2017-05-30T03:29:46.229Z,2276
2017-05-30T03:30:46.228Z,2456
2017-05-30T03:31:46.222Z,2652
2017-05-30T03:32:46.223Z,2816
2017-05-30T03:33:46.220Z,2952
2017-05-30T03:34:46.218Z,3044
2017-05-30T03:35:46.220Z,3096
2017-05-30T03:36:46.210Z,3160
2017-05-30T03:37:46.216Z,3208
2017-05-30T03:38:46.214Z,3204
2017-05-30T03:39:45.603Z,3248
2017-05-30T03:40:46.211Z,3352
2017-05-30T03:41:46.201Z,3488
2017-05-30T03:42:46.203Z,3588
2017-05-30T03:43:46.201Z,3704
2017-05-30T03:44:46.202Z,3800
2017-05-30T03:45:45.896Z,3940
2017-05-30T03:46:46.199Z,4040
2017-05-30T03:47:46.198Z,4104
2017-05-30T03:48:46.199Z,4176
2017-05-30T03:49:46.194Z,4276
2017-05-30T03:50:45.894Z,4368
2017-05-30T03:51:46.196Z,4328
2017-05-30T03:52:46.199Z,4556
2017-05-30T03:53:46.199Z,4736
2017-05-30T03:54:46.193Z,4856
2017-05-30T03:55:46.194Z,4996
2017-05-30T03:56:45.889Z,5172
2017-05-30T03:57:46.197Z,5456
2017-05-30T03:58:46.198Z,5668
2017-05-30T03:59:46.195Z,5964
2017-05-30T04:00:46.198Z,6332
2017-05-30T04:01:46.197Z,6576
2017-05-30T04:02:46.200Z,6820
2017-05-30T04:03:46.201Z,7024
2017-05-30T04:04:46.198Z,7076
2017-05-30T04:05:46.201Z,7256
2017-05-30T04:06:46.200Z,7656
2017-05-30T04:07:46.211Z,7756
2017-05-30T04:08:45.901Z,8032
2017-05-30T04:09:45.901Z,7892
2017-05-30T04:10:46.205Z,8264
2017-05-30T04:11:46.213Z,8528
2017-05-30T04:12:46.217Z,8300
2017-05-30T04:13:46.215Z,8644
2017-05-30T04:14:46.218Z,8608
2017-05-30T04:15:46.220Z,8748
2017-05-30T04:16:46.222Z,9052
2017-05-30T04:17:46.224Z,9304
2017-05-30T04:18:46.234Z,9744
2017-05-30T04:19:46.233Z,9696
2017-05-30T04:20:45.934Z,9420
2017-05-30T04:21:46.239Z,9664
2017-05-30T04:22:46.243Z,10152
2017-05-30T04:23:46.253Z,9864
2017-05-30T04:24:46.255Z,10116
2017-05-30T04:25:46.255Z,10452
2017-05-30T04:26:46.263Z,9836
2017-05-30T04:27:46.270Z,9916
2017-05-30T04:28:46.275Z,8500
2017-05-30T04:29:46.277Z,6820
2017-05-30T04:30:46.533Z,6796
2017-05-30T04:31:46.293Z,6860
2017-05-30T04:32:46.293Z,6912
2017-05-30T04:33:46.301Z,6976
2017-05-30T04:34:46.306Z,7056
2017-05-30T04:35:46.309Z,7192
2017-05-30T04:36:46.312Z,7388
2017-05-30T04:37:46.324Z,7616
2017-05-30T04:38:46.325Z,7876
2017-05-30T04:39:46.331Z,8136
2017-05-30T04:40:46.334Z,8252
2017-05-30T04:41:46.340Z,11556
2017-05-30T04:42:46.042Z,14052
2017-05-30T04:43:46.348Z,15008
2017-05-30T04:44:46.419Z,15200
2017-05-30T04:45:46.362Z,15904
2017-05-30T04:46:46.362Z,16864
2017-05-30T04:47:46.369Z,16384
2017-05-30T04:48:46.377Z,16320
2017-05-30T04:49:46.379Z,17184
2017-05-30T04:50:46.731Z,17984
2017-05-30T04:51:46.388Z,18624
2017-05-30T04:52:46.399Z,18176
2017-05-30T04:53:46.400Z,18304
2017-05-30T04:54:46.411Z,20032
2017-05-30T04:55:46.106Z,20512
2017-05-30T04:56:46.414Z,19264
2017-05-30T04:57:46.429Z,19008
2017-05-30T04:58:46.436Z,20064
2017-05-30T04:59:46.435Z,19872
2017-05-30T05:00:46.442Z,18784
2017-05-30T05:01:46.140Z,19808
2017-05-30T05:02:46.458Z,20832
2017-05-30T05:03:46.464Z,21472
2017-05-30T05:04:46.467Z,22368
2017-05-30T05:05:46.478Z,21952
2017-05-30T05:06:46.505Z,21056
2017-05-30T05:07:46.490Z,22432
2017-05-30T05:08:46.501Z,23712
2017-05-30T05:09:46.519Z,22880
2017-05-30T05:10:46.214Z,22848
2017-05-30T05:11:46.524Z,24512
2017-05-30T05:12:46.536Z,25280
2017-05-30T05:13:46.542Z,24288
2017-05-30T05:14:46.553Z,24416
2017-05-30T05:15:46.560Z,24832
2017-05-30T05:16:46.565Z,24352
2017-05-30T05:17:46.578Z,23456
2017-05-30T05:18:46.584Z,23616
2017-05-30T05:19:46.594Z,23616
2017-05-30T05:20:46.300Z,23520
2017-05-30T05:21:46.613Z,24416
2017-05-30T05:22:46.622Z,25472
2017-05-30T05:23:46.635Z,25792
2017-05-30T05:24:46.658Z,26112
2017-05-30T05:25:46.348Z,27616
2017-05-30T05:26:46.662Z,27776
2017-05-30T05:27:46.675Z,27808
2017-05-30T05:28:46.381Z,28416
2017-05-30T05:29:46.692Z,28512
2017-05-30T05:30:46.703Z,28064
2017-05-30T05:31:46.711Z,28608
2017-05-30T05:32:46.727Z,29664
2017-05-30T05:33:46.739Z,30816
2017-05-30T05:34:46.448Z,29888
2017-05-30T05:35:46.147Z,28672
2017-05-30T05:36:46.767Z,29856
2017-05-30T05:37:46.483Z,32064
2017-05-30T05:38:46.545Z,32960
2017-05-30T05:39:46.800Z,32480
2017-05-30T05:40:46.815Z,31200
2017-05-30T05:41:46.829Z,29696
2017-05-30T05:42:46.839Z,29568
2017-05-30T05:43:46.846Z,30336
2017-05-30T05:44:46.603Z,32608
2017-05-30T05:45:46.879Z,32672
2017-05-30T05:46:46.275Z,30816
2017-05-30T05:47:46.893Z,30048
2017-05-30T05:48:46.901Z,32128
2017-05-30T05:49:46.916Z,35136
2017-05-30T05:50:46.928Z,35776
2017-05-30T05:51:46.939Z,33984
2017-05-30T05:52:46.655Z,33120
2017-05-30T05:53:46.961Z,35200
2017-05-30T05:54:46.975Z,36992
2017-05-30T05:55:46.986Z,36064
2017-05-30T05:56:46.998Z,34656
2017-05-30T05:57:46.707Z,34816
2017-05-30T05:58:47.025Z,36480
2017-05-30T05:59:46.733Z,37568
2017-05-30T06:00:47.051Z,38496
2017-05-30T06:01:47.061Z,38624
2017-05-30T06:02:46.776Z,38016
2017-05-30T06:03:47.089Z,37536
2017-05-30T06:04:47.105Z,37824
2017-05-30T06:05:47.114Z,39744
2017-05-30T06:06:47.127Z,40704
2017-05-30T06:07:47.145Z,38432
2017-05-30T06:08:47.156Z,34688
2017-05-30T06:09:46.864Z,34304
2017-05-30T06:10:47.183Z,36352
2017-05-30T06:11:47.213Z,36192
2017-05-30T06:12:47.210Z,34080
2017-05-30T06:13:46.924Z,33696
2017-05-30T06:14:47.240Z,35616
2017-05-30T06:15:47.253Z,36032
2017-05-30T06:16:47.264Z,33376
2017-05-30T06:17:47.279Z,29824
2017-05-30T06:18:47.291Z,28192
2017-05-30T06:19:47.303Z,28608
2017-05-30T06:20:47.321Z,29056
2017-05-30T06:21:47.337Z,29344
2017-05-30T06:22:47.352Z,29792
2017-05-30T06:23:47.371Z,29440
2017-05-30T06:24:47.101Z,28192
2017-05-30T06:25:47.398Z,26272
2017-05-30T06:26:47.106Z,24960
2017-05-30T06:27:47.426Z,23616
2017-05-30T06:28:47.443Z,22272
2017-05-30T06:29:47.461Z,20288
2017-05-30T06:30:47.470Z,18528
2017-05-30T06:31:47.482Z,19680
2017-05-30T06:32:47.499Z,25120
2017-05-30T06:33:47.520Z,33344
2017-05-30T06:34:47.531Z,41344
2017-05-30T06:35:47.550Z,46752
2017-05-30T06:36:47.565Z,48512
2017-05-30T06:37:47.577Z,46816
2017-05-30T06:38:47.596Z,44928
2017-05-30T06:39:47.607Z,44768
2017-05-30T06:40:47.632Z,43488
2017-05-30T06:41:47.639Z,42656
2017-05-30T06:42:47.351Z,43424
2017-05-30T06:43:47.671Z,45024
2017-05-30T06:44:47.687Z,49376
2017-05-30T06:45:47.703Z,57344
2017-05-30T06:46:47.717Z,62944
2017-05-30T06:47:47.729Z,64448
2017-05-30T06:48:47.746Z,63584
2017-05-30T06:49:47.764Z,58912
2017-05-30T06:50:47.778Z,61184
2017-05-30T06:51:47.493Z,60576
2017-05-30T06:52:47.814Z,61696
2017-05-30T06:53:47.830Z,59008
2017-05-30T06:54:47.847Z,58048
2017-05-30T06:55:47.867Z,56672
2017-05-30T06:56:47.878Z,56224
2017-05-30T06:57:47.586Z,60000
2017-05-30T06:58:47.905Z,67008
2017-05-30T06:59:47.925Z,74944
2017-05-30T07:00:47.938Z,81792
2017-05-30T07:01:47.956Z,88608
2017-05-30T07:02:47.668Z,93568
2017-05-30T07:03:47.990Z,96672
2017-05-30T07:04:48.007Z,88160
2017-05-30T07:05:48.028Z,82144
2017-05-30T07:06:48.043Z,80704
2017-05-30T07:07:48.062Z,25376
2017-05-30T07:08:48.075Z,26272
2017-05-30T07:09:48.089Z,59680
2017-05-30T07:10:48.111Z,73408
2017-05-30T07:11:48.124Z,75296
2017-05-30T07:12:47.839Z,90880
2017-05-30T07:13:48.171Z,23264
2017-05-30T07:14:48.184Z,47424
2017-05-30T07:15:48.201Z,26784
2017-05-30T07:16:48.213Z,76992
2017-05-30T07:17:48.234Z,21152
2017-05-30T07:18:48.246Z,44032
2017-05-30T07:19:47.958Z,49056
2017-05-30T07:20:48.281Z,46080
2017-05-30T07:21:48.297Z,20448
2017-05-30T07:22:48.314Z,18784
2017-05-30T07:23:48.333Z,49184
2017-05-30T07:24:47.737Z,64064
2017-05-30T07:25:48.366Z,45152
2017-05-30T07:26:48.074Z,58976
2017-05-30T07:27:48.396Z,54304
2017-05-30T07:28:48.418Z,21568
2017-05-30T07:29:48.430Z,49152
2017-05-30T07:30:48.143Z,18400
2017-05-30T07:31:48.461Z,50144
2017-05-30T07:32:48.484Z,43104
2017-05-30T07:33:48.497Z,34752
2017-05-30T07:34:48.215Z,27488
2017-05-30T07:35:48.544Z,21504
2017-05-30T07:36:48.546Z,17920
2017-05-30T07:37:48.566Z,17088
2017-05-30T07:38:48.624Z,18080
2017-05-30T07:39:48.593Z,20064
2017-05-30T07:40:48.610Z,22048
2017-05-30T07:41:48.323Z,20960
2017-05-30T07:42:48.647Z,22816
2017-05-30T07:43:48.664Z,23808
2017-05-30T07:44:48.680Z,24928
2017-05-30T07:45:48.697Z,19680
2017-05-30T07:46:48.408Z,20960
2017-05-30T07:47:48.733Z,32256
2017-05-30T07:48:48.748Z,35040
2017-05-30T07:49:48.465Z,37920
2017-05-30T07:50:48.782Z,31328
2017-05-30T07:51:48.499Z,20864
2017-05-30T07:52:48.816Z,22208
2017-05-30T07:53:48.842Z,19360
2017-05-30T07:54:48.549Z,37408
2017-05-30T07:55:48.870Z,43104
2017-05-30T07:56:48.893Z,30016
2017-05-30T07:57:48.902Z,48064
2017-05-30T07:58:48.921Z,31296
2017-05-30T07:59:48.942Z,21600
2017-05-30T08:00:48.650Z,22208
2017-05-30T08:01:48.666Z,31840
2017-05-30T08:02:48.988Z,49184
2017-05-30T08:03:49.004Z,50944
2017-05-30T08:04:49.020Z,49952
2017-05-30T08:05:48.743Z,48896
2017-05-30T08:06:48.746Z,47904
2017-05-30T08:07:48.765Z,51328
2017-05-30T08:08:48.784Z,54592
2017-05-30T08:09:48.795Z,58080
2017-05-30T08:10:48.813Z,59712
2017-05-30T08:11:48.829Z,63840
2017-05-30T08:12:48.546Z,67328
2017-05-30T08:13:49.173Z,67520
2017-05-30T08:14:49.194Z,69728
2017-05-30T08:15:48.912Z,68960
2017-05-30T08:16:49.222Z,71808
2017-05-30T08:17:49.241Z,73152
2017-05-30T08:18:49.257Z,76096
2017-05-30T08:19:48.976Z,77600
2017-05-30T08:20:49.293Z,77152
2017-05-30T08:21:49.312Z,74016
2017-05-30T08:22:49.329Z,74080
2017-05-30T08:23:49.054Z,74400
2017-05-30T08:24:49.372Z,70592
2017-05-30T08:25:49.081Z,65632
2017-05-30T08:26:49.104Z,64160
2017-05-30T08:27:49.130Z,71520
2017-05-30T08:28:49.146Z,77792
2017-05-30T08:29:49.463Z,77984
2017-05-30T08:30:48.874Z,76768
2017-05-30T08:31:49.208Z,69344
2017-05-30T08:32:49.518Z,61920
2017-05-30T08:33:49.535Z,59424
2017-05-30T08:34:49.562Z,62208
2017-05-30T08:35:49.276Z,67072
2017-05-30T08:36:49.301Z,71040
2017-05-30T08:37:49.310Z,75744
2017-05-30T08:38:49.632Z,77312
2017-05-30T08:39:49.346Z,75104
2017-05-30T08:40:49.371Z,71680
2017-05-30T08:41:49.081Z,72384
2017-05-30T08:42:49.402Z,74272
2017-05-30T08:43:49.423Z,78240
2017-05-30T08:44:49.503Z,78176
2017-05-30T08:45:49.469Z,75072
2017-05-30T08:46:49.481Z,70400
2017-05-30T08:47:49.493Z,67456
2017-05-30T08:48:49.818Z,72736
2017-05-30T08:49:49.882Z,75936
2017-05-30T08:50:49.549Z,75072
2017-05-30T08:51:49.568Z,62272
2017-05-30T08:52:49.589Z,30080
2017-05-30T08:53:49.905Z,13980
2017-05-30T08:54:49.621Z,13792
2017-05-30T08:55:49.963Z,13892
2017-05-30T08:56:49.652Z,14020
2017-05-30T08:57:49.669Z,13952
2017-05-30T08:58:49.987Z,14000
2017-05-30T08:59:50.004Z,14020
2017-05-30T09:00:49.721Z,14140
2017-05-30T09:01:49.726Z,14500
2017-05-30T09:02:49.442Z,15428
2017-05-30T09:03:49.762Z,16844
2017-05-30T09:04:50.073Z,18720
2017-05-30T09:05:50.088Z,19744
2017-05-30T09:06:50.101Z,19776
2017-05-30T09:07:50.116Z,19808
2017-05-30T09:08:50.123Z,19584
2017-05-30T09:09:50.138Z,18688
2017-05-30T09:10:50.147Z,18720
2017-05-30T09:11:49.867Z,18240
2017-05-30T09:12:50.175Z,17760
2017-05-30T09:13:49.884Z,17284
2017-05-30T09:14:50.201Z,18400
2017-05-30T09:15:50.215Z,19776
2017-05-30T09:16:50.221Z,20800
2017-05-30T09:17:50.235Z,21504
2017-05-30T09:18:49.942Z,20896
2017-05-30T09:19:50.255Z,21504
2017-05-30T09:20:50.269Z,22400
2017-05-30T09:21:50.274Z,22432
2017-05-30T09:22:49.681Z,22880
2017-05-30T09:23:50.305Z,22432
2017-05-30T09:24:50.006Z,20224
2017-05-30T09:25:50.331Z,19200
2017-05-30T09:26:50.330Z,18528
2017-05-30T09:27:50.347Z,18112
2017-05-30T09:28:50.351Z,17280
2017-05-30T09:29:50.361Z,18112
2017-05-30T09:30:50.372Z,19360
2017-05-30T09:31:50.384Z,20672
2017-05-30T09:32:50.395Z,20832
2017-05-30T09:33:50.107Z,20960
2017-05-30T09:34:50.419Z,21184
2017-05-30T09:35:50.125Z,19712
2017-05-30T09:36:50.134Z,18784
2017-05-30T09:37:50.453Z,18816
2017-05-30T09:38:50.455Z,18880
2017-05-30T09:39:50.468Z,19328
2017-05-30T09:40:50.175Z,18912
2017-05-30T09:41:50.491Z,19200
2017-05-30T09:42:50.196Z,19552
2017-05-30T09:43:50.517Z,19872
2017-05-30T09:44:50.521Z,20320
2017-05-30T09:45:50.527Z,20224
2017-05-30T09:46:50.540Z,19296
2017-05-30T09:47:50.551Z,17816
2017-05-30T09:48:50.564Z,16660
2017-05-30T09:49:50.269Z,15752
2017-05-30T09:50:50.277Z,15132
2017-05-30T09:51:50.592Z,14492
2017-05-30T09:52:50.296Z,14196
2017-05-30T09:53:50.615Z,14076
2017-05-30T09:54:50.619Z,13924
2017-05-30T09:55:50.634Z,13972
2017-05-30T09:56:50.639Z,14120
2017-05-30T09:57:50.652Z,14384
2017-05-30T09:58:50.363Z,14236
2017-05-30T09:59:50.069Z,14232
2017-05-30T10:00:50.682Z,13900
2017-05-30T10:01:50.691Z,13800
2017-05-30T10:02:50.707Z,13592
2017-05-30T10:03:50.414Z,13448
2017-05-30T10:04:50.420Z,13408
2017-05-30T10:05:50.732Z,13472
2017-05-30T10:06:50.748Z,13872
2017-05-30T10:07:50.750Z,14448
2017-05-30T10:08:50.158Z,15224
2017-05-30T10:09:50.472Z,16640
2017-05-30T10:10:50.792Z,17672
2017-05-30T10:11:50.792Z,17484
2017-05-30T10:12:50.803Z,16176
2017-05-30T10:13:50.815Z,15072
2017-05-30T10:14:50.826Z,14412
2017-05-30T10:15:50.834Z,14452
2017-05-30T10:16:50.839Z,15084
2017-05-30T10:17:50.854Z,13852
2017-05-30T10:18:50.555Z,13024
2017-05-30T10:19:50.869Z,12252
2017-05-30T10:20:50.883Z,11704
2017-05-30T10:21:50.892Z,11324
2017-05-30T10:22:50.900Z,11128
2017-05-30T10:23:50.605Z,12100
2017-05-30T10:24:50.919Z,14144
2017-05-30T10:25:50.930Z,16004
2017-05-30T10:26:50.938Z,16928
2017-05-30T10:27:50.945Z,16624
2017-05-30T10:28:50.958Z,16016
2017-05-30T10:29:50.967Z,15748
2017-05-30T10:30:50.977Z,15360
2017-05-30T10:31:50.984Z,15212
2017-05-30T10:32:50.995Z,15208
2017-05-30T10:33:51.008Z,15264
2017-05-30T10:34:51.014Z,15500
2017-05-30T10:35:50.726Z,15680
2017-05-30T10:36:50.732Z,15988
2017-05-30T10:37:50.739Z,16504
2017-05-30T10:38:52.467Z,17100
2017-05-30T10:39:55.712Z,18560
2017-05-30T10:40:50.772Z,20000
2017-05-30T10:41:51.086Z,20064
2017-05-30T10:42:51.099Z,19296
2017-05-30T10:43:50.802Z,18464
2017-05-30T10:44:50.808Z,18208
2017-05-30T10:45:50.819Z,17516
2017-05-30T10:46:50.828Z,17336
2017-05-30T10:47:51.136Z,17260
2017-05-30T10:48:50.842Z,17212
2017-05-30T10:49:51.158Z,17028
2017-05-30T10:50:51.173Z,16912
2017-05-30T10:51:50.874Z,16660
2017-05-30T10:52:50.890Z,17280
2017-05-30T10:53:51.201Z,17148
2017-05-30T10:54:51.206Z,17060
2017-05-30T10:55:51.221Z,17472
2017-05-30T10:56:51.228Z,18272
2017-05-30T10:57:50.940Z,19200
2017-05-30T10:58:51.248Z,23040
2017-05-30T10:59:51.253Z,26976
2017-05-30T11:00:50.958Z,26624
2017-05-30T11:01:50.972Z,25792
2017-05-30T11:02:51.284Z,25888
2017-05-30T11:03:50.990Z,26240
2017-05-30T11:04:51.003Z,26880
2017-05-30T11:05:51.315Z,27232
2017-05-30T11:06:51.328Z,26592
2017-05-30T11:07:51.334Z,27264
2017-05-30T11:08:51.046Z,26944
2017-05-30T11:09:51.354Z,24768
2017-05-30T11:10:51.380Z,20256
2017-05-30T11:11:51.379Z,19008
2017-05-30T11:12:51.152Z,18784
2017-05-30T11:13:51.402Z,20448
2017-05-30T11:14:50.810Z,22944
2017-05-30T11:15:51.422Z,25504
2017-05-30T11:16:51.125Z,25984
2017-05-30T11:17:51.439Z,26304
2017-05-30T11:18:51.449Z,24096
2017-05-30T11:19:51.161Z,22816
2017-05-30T11:20:51.470Z,21600
2017-05-30T11:21:51.481Z,17344
2017-05-30T11:22:51.548Z,9012
2017-05-30T11:23:51.202Z,4944
2017-05-30T11:24:51.519Z,4796
2017-05-30T11:25:51.525Z,6676
2017-05-30T11:26:51.533Z,9736
2017-05-30T11:27:51.543Z,8708
2017-05-30T11:28:51.550Z,6804
2017-05-30T11:29:51.262Z,5700
2017-05-30T11:30:51.276Z,5292
2017-05-30T11:31:51.284Z,5036
2017-05-30T11:32:51.295Z,5224
2017-05-30T11:33:51.300Z,5568
2017-05-30T11:34:51.322Z,6188
2017-05-30T11:35:51.621Z,6712
2017-05-30T11:36:51.324Z,7080
2017-05-30T11:37:51.338Z,6852
2017-05-30T11:38:51.036Z,6588
2017-05-30T11:39:51.352Z,6628
2017-05-30T11:40:51.356Z,6744
2017-05-30T11:41:51.362Z,6676
2017-05-30T11:42:51.371Z,6408
2017-05-30T11:43:51.382Z,5956
2017-05-30T11:44:51.688Z,5512
2017-05-30T11:45:51.701Z,5176
2017-05-30T11:46:51.097Z,4984
2017-05-30T11:47:51.406Z,4908
2017-05-30T11:48:51.715Z,4932
2017-05-30T11:49:51.722Z,4976
2017-05-30T11:50:51.722Z,5056
2017-05-30T11:51:51.729Z,5068
2017-05-30T11:52:51.733Z,4980
2017-05-30T11:53:51.436Z,4864
2017-05-30T11:54:51.741Z,4868
2017-05-30T11:55:51.750Z,4964
2017-05-30T11:56:51.455Z,5128
2017-05-30T11:57:51.453Z,5352
2017-05-30T11:58:51.464Z,5752
2017-05-30T11:59:51.461Z,6240
2017-05-30T12:00:51.464Z,6816
2017-05-30T12:01:51.469Z,7432
2017-05-30T12:02:51.470Z,8080
2017-05-30T12:03:51.783Z,9060
2017-05-30T12:04:51.479Z,10336
2017-05-30T12:05:51.501Z,11792
2017-05-30T12:06:51.187Z,13272
2017-05-30T12:07:51.491Z,14780
2017-05-30T12:08:51.496Z,16192
2017-05-30T12:09:51.554Z,17184
2017-05-30T12:10:51.510Z,18336
2017-05-30T12:11:51.500Z,20608
2017-05-30T12:12:51.804Z,24160
2017-05-30T12:13:51.503Z,29472
2017-05-30T12:14:51.506Z,32704
2017-05-30T12:15:51.817Z,33888
2017-05-30T12:16:51.817Z,34016
2017-05-30T12:17:51.819Z,33536
2017-05-30T12:18:51.519Z,33376
2017-05-30T12:19:51.830Z,33792
2017-05-30T12:20:51.832Z,34048
2017-05-30T12:21:51.837Z,33920
2017-05-30T12:22:51.837Z,33056
2017-05-30T12:23:51.538Z,32064
2017-05-30T12:24:51.597Z,31872
2017-05-30T12:25:51.548Z,31296
2017-05-30T12:26:51.550Z,30784
2017-05-30T12:27:51.864Z,30784
2017-05-30T12:28:51.867Z,30912
2017-05-30T12:29:51.263Z,31072
2017-05-30T12:30:51.570Z,31200
2017-05-30T12:31:51.580Z,30592
2017-05-30T12:32:51.585Z,30720
2017-05-30T12:33:51.591Z,31136
2017-05-30T12:34:51.897Z,30944
2017-05-30T12:35:51.901Z,30176
2017-05-30T12:36:51.611Z,28800
2017-05-30T12:37:51.916Z,27744
2017-05-30T12:38:51.312Z,27104
2017-05-30T12:39:51.967Z,26080
2017-05-30T12:40:51.327Z,25184
2017-05-30T12:41:51.939Z,24544
2017-05-30T12:42:51.944Z,24448
2017-05-30T12:43:51.946Z,24448
2017-05-30T12:44:51.652Z,24224
2017-05-30T12:45:51.659Z,23392
2017-05-30T12:46:51.611Z,21792
2017-05-30T12:47:51.972Z,19680
2017-05-30T12:48:51.675Z,17920
2017-05-30T12:49:51.986Z,16736
2017-05-30T12:50:52.015Z,15044
2017-05-30T12:51:52.001Z,13416
2017-05-30T12:52:52.001Z,12120
2017-05-30T12:53:52.009Z,11508
2017-05-30T12:54:51.713Z,11448
2017-05-30T12:55:52.023Z,11444
2017-05-30T12:56:52.029Z,11452
2017-05-30T12:57:52.033Z,11444
2017-05-30T12:58:52.041Z,11264
2017-05-30T12:59:51.738Z,10864
2017-05-30T13:00:51.444Z,10468
2017-05-30T13:01:52.059Z,10252
2017-05-30T13:02:52.065Z,10232
2017-05-30T13:03:52.066Z,10380
2017-05-30T13:04:52.071Z,10700
2017-05-30T13:05:52.077Z,11340
2017-05-30T13:06:52.081Z,12396
2017-05-30T13:07:52.084Z,13944
2017-05-30T13:08:52.091Z,16012
2017-05-30T13:09:52.098Z,18336
2017-05-30T13:10:52.103Z,20096
2017-05-30T13:11:52.107Z,21504
2017-05-30T13:12:52.110Z,22368
2017-05-30T13:13:52.465Z,22432
2017-05-30T13:14:51.814Z,22048
2017-05-30T13:15:51.824Z,21728
2017-05-30T13:16:51.830Z,21888
2017-05-30T13:17:52.137Z,21504
2017-05-30T13:18:52.142Z,21152